createdAt,value
2019-01-21T00:00:56.010Z,-2.40
2019-01-21T00:03:25.018Z,-2.40
2019-01-21T00:05:54.063Z,-2.50
2019-01-21T00:08:23.158Z,-2.50
2019-01-21T00:10:52.208Z,-2.50
2019-01-21T00:13:21.165Z,-2.50
2019-01-21T00:15:50.292Z,-2.50
2019-01-21T00:18:19.764Z,-2.50
2019-01-21T00:20:48.688Z,-2.40
2019-01-21T00:23:17.533Z,-2.50
2019-01-21T00:25:46.408Z,-2.50
2019-01-21T00:28:20.124Z,-2.60
2019-01-21T00:30:49.260Z,-2.60
2019-01-21T00:33:18.155Z,-2.60
2019-01-21T00:35:47.074Z,-2.70
2019-01-21T00:38:22.118Z,-2.70
2019-01-21T00:40:51.038Z,-2.80
2019-01-21T00:43:19.964Z,-2.80
2019-01-21T00:45:48.857Z,-2.80
2019-01-21T00:48:17.894Z,-2.80
2019-01-21T00:50:46.781Z,-2.80
2019-01-21T00:53:15.709Z,-2.80
2019-01-21T00:55:44.583Z,-2.80
2019-01-21T00:58:13.569Z,-2.80
2019-01-21T01:00:42.495Z,-2.80
2019-01-21T01:03:11.630Z,-2.80
2019-01-21T01:08:17.340Z,-2.90
2019-01-21T01:10:46.386Z,-2.90
2019-01-21T01:13:15.416Z,-2.90
2019-01-21T01:15:44.424Z,-2.80
2019-01-21T01:18:13.566Z,-2.80
2019-01-21T01:20:42.401Z,-2.80
2019-01-21T01:23:11.281Z,-2.90
2019-01-21T01:25:40.451Z,-2.90
2019-01-21T01:28:09.680Z,-3.00
2019-01-21T01:30:38.565Z,-3.10
2019-01-21T01:33:07.591Z,-3.10
2019-01-21T01:35:36.700Z,-3.10
2019-01-21T01:38:05.958Z,-3.10
2019-01-21T01:40:34.851Z,-3.20
2019-01-21T01:43:04.236Z,-3.20
2019-01-21T01:45:33.279Z,-3.20
2019-01-21T01:48:03.099Z,-3.10
2019-01-21T01:50:32.662Z,-3.10
2019-01-21T01:53:02.026Z,-3.00
2019-01-21T01:55:32.521Z,-3.00
2019-01-21T01:58:03.551Z,-3.10
2019-01-21T02:00:32.831Z,-3.10
2019-01-21T02:03:01.978Z,-3.10
2019-01-21T02:05:31.190Z,-3.10
2019-01-21T02:08:00.397Z,-3.10
2019-01-21T02:10:29.962Z,-3.20
2019-01-21T02:12:59.109Z,-3.20
2019-01-21T02:15:28.291Z,-3.20
2019-01-21T02:17:57.388Z,-3.20
2019-01-21T02:20:26.469Z,-3.20
2019-01-21T02:22:58.798Z,-3.30
2019-01-21T02:25:34.947Z,-3.30
2019-01-21T02:28:48.260Z,-3.30
2019-01-21T02:31:46.045Z,-3.30
2019-01-21T02:34:40.313Z,-3.30
2019-01-21T02:37:45.213Z,-3.20
2019-01-21T02:41:01.657Z,-3.10
2019-01-21T02:44:12.949Z,-3.10
2019-01-21T02:47:44.941Z,-3.10
2019-01-21T02:50:49.479Z,-3.00
2019-01-21T02:53:39.833Z,-3.00
2019-01-21T02:56:58.016Z,-3.00
2019-01-21T03:00:05.686Z,-3.00
2019-01-21T03:03:07.364Z,-3.10
2019-01-21T03:06:23.388Z,-3.10
2019-01-21T03:09:37.715Z,-3.10
2019-01-21T03:12:34.559Z,-3.20
2019-01-21T03:15:18.921Z,-3.20
2019-01-21T03:18:13.114Z,-3.30
2019-01-21T03:21:11.098Z,-3.30
2019-01-21T03:24:30.481Z,-3.30
2019-01-21T03:27:09.650Z,-3.30
2019-01-21T03:30:35.369Z,-3.30
2019-01-21T03:33:54.855Z,-3.30
2019-01-21T03:36:48.746Z,-3.20
2019-01-21T03:39:44.028Z,-3.20
2019-01-21T03:42:26.045Z,-3.20
2019-01-21T03:45:32.179Z,-3.30
2019-01-21T03:48:25.702Z,-3.50
2019-01-21T03:51:34.608Z,-3.50
2019-01-21T03:54:22.538Z,-3.50
2019-01-21T03:57:07.232Z,-3.50
2019-01-21T04:00:01.281Z,-3.50
2019-01-21T04:02:56.702Z,-3.60
2019-01-21T04:05:59.928Z,-3.60
2019-01-21T04:08:45.101Z,-3.60
2019-01-21T04:11:19.017Z,-3.60
2019-01-21T04:14:20.762Z,-3.50
2019-01-21T04:17:25.695Z,-3.60
2019-01-21T04:20:08.882Z,-3.60
2019-01-21T04:23:10.367Z,-3.60
2019-01-21T04:26:03.833Z,-3.50
2019-01-21T04:28:53.714Z,-3.50
2019-01-21T04:32:09.419Z,-3.50
2019-01-21T04:34:59.504Z,-3.60
2019-01-21T04:37:55.133Z,-3.60
2019-01-21T04:40:55.531Z,-3.60
2019-01-21T04:44:00.557Z,-3.60
2019-01-21T04:46:54.117Z,-3.70
2019-01-21T04:49:39.975Z,-3.70
2019-01-21T04:55:12.255Z,-3.60
2019-01-21T04:58:24.453Z,-3.60
2019-01-21T05:01:49.727Z,-3.60
2019-01-21T05:04:55.845Z,-3.60
2019-01-21T05:07:34.462Z,-3.60
2019-01-21T05:10:36.845Z,-3.60
2019-01-21T05:13:44.393Z,-3.60
2019-01-21T05:16:23.585Z,-3.50
2019-01-21T05:19:58.588Z,-3.50
2019-01-21T05:22:44.774Z,-3.50
2019-01-21T05:25:46.147Z,-3.50
2019-01-21T05:29:11.861Z,-3.60
2019-01-21T05:32:37.186Z,-3.60
2019-01-21T05:36:05.578Z,-3.60
2019-01-21T05:39:19.303Z,-3.70
2019-01-21T05:42:32.382Z,-3.70
2019-01-21T05:45:27.825Z,-3.70
2019-01-21T05:48:36.624Z,-3.70
2019-01-21T05:51:45.772Z,-3.80
2019-01-21T05:57:50.073Z,-3.80
2019-01-21T06:00:53.338Z,-3.90
2019-01-21T06:03:48.332Z,-4.00
2019-01-21T06:06:53.430Z,-4.00
2019-01-21T06:10:08.950Z,-3.90
2019-01-21T06:13:13.425Z,-3.90
2019-01-21T06:16:25.563Z,-4.00
2019-01-21T06:19:18.417Z,-4.00
2019-01-21T06:22:20.154Z,-4.10
2019-01-21T06:25:20.578Z,-4.10
2019-01-21T06:28:14.413Z,-4.10
2019-01-21T06:31:00.696Z,-4.00
2019-01-21T06:34:06.064Z,-4.00
2019-01-21T06:36:58.092Z,-4.00
2019-01-21T06:39:39.319Z,-3.90
2019-01-21T06:42:32.309Z,-3.90
2019-01-21T06:45:38.372Z,-3.90
2019-01-21T06:48:47.448Z,-3.80
2019-01-21T06:51:40.530Z,-3.80
2019-01-21T06:54:46.186Z,-3.80
2019-01-21T06:58:02.520Z,-3.90
2019-01-21T07:01:09.767Z,-3.90
2019-01-21T07:04:23.021Z,-3.90
2019-01-21T07:07:35.258Z,-3.90
2019-01-21T07:10:16.154Z,-3.90
2019-01-21T07:13:25.293Z,-3.80
2019-01-21T07:16:37.935Z,-3.80
2019-01-21T07:19:54.419Z,-3.80
2019-01-21T07:22:51.464Z,-3.90
2019-01-21T07:25:41.796Z,-3.80
2019-01-21T07:28:37.618Z,-3.80
2019-01-21T07:31:19.344Z,-3.80
2019-01-21T07:34:20.724Z,-3.80
2019-01-21T07:37:24.157Z,-3.80
2019-01-21T07:40:46.482Z,-3.80
2019-01-21T07:43:59.850Z,-3.80
2019-01-21T07:46:59.745Z,-3.80
2019-01-21T07:50:12.125Z,-3.80
2019-01-21T07:53:12.544Z,-3.80
2019-01-21T07:56:17.745Z,-3.70
2019-01-21T07:59:34.171Z,-3.70
2019-01-21T08:02:33.311Z,-3.70
2019-01-21T08:05:52.299Z,-3.70
2019-01-21T08:09:02.713Z,-3.60
2019-01-21T08:11:49.178Z,-3.50
2019-01-21T08:14:45.650Z,-3.50
2019-01-21T08:17:39.076Z,-3.40
2019-01-21T08:20:33.257Z,-3.30
2019-01-21T08:23:30.496Z,-3.30
2019-01-21T08:26:34.954Z,-3.20
2019-01-21T08:29:33.734Z,-3.10
2019-01-21T09:01:19.113Z,-2.50
2019-01-21T09:04:44.258Z,-2.50
2019-01-21T09:08:06.537Z,-2.40
2019-01-21T09:11:40.980Z,-2.30
2019-01-21T09:14:39.376Z,-2.30
2019-01-21T09:17:38.911Z,-2.20
2019-01-21T09:20:44.116Z,-2.20
2019-01-21T09:23:37.093Z,-2.10
2019-01-21T09:26:29.734Z,-2.00
2019-01-21T09:29:46.352Z,-2.00
2019-01-21T09:32:52.559Z,-1.90
2019-01-21T09:36:05.493Z,-1.90
2019-01-21T09:39:24.542Z,-1.80
2019-01-21T09:42:31.351Z,-1.80
2019-01-21T09:45:13.263Z,-1.70
2019-01-21T09:47:40.769Z,-1.60
2019-01-21T09:50:09.680Z,-1.60
2019-01-21T09:52:39.523Z,-1.50
2019-01-21T09:55:09.531Z,-1.40
2019-01-21T09:57:38.719Z,-1.30
2019-01-21T10:00:15.100Z,-1.20
2019-01-21T10:02:49.009Z,-1.20
2019-01-21T10:05:18.861Z,-1.10
2019-01-21T10:07:55.638Z,-1.00
2019-01-21T10:11:06.328Z,-0.90
2019-01-21T10:13:56.141Z,-0.80
2019-01-21T10:16:53.986Z,-0.70
2019-01-21T10:19:40.094Z,-0.70
2019-01-21T10:22:19.432Z,-0.60
2019-01-21T10:25:03.276Z,-0.60
2019-01-21T10:27:57.949Z,-0.50
2019-01-21T10:30:54.083Z,-0.50
2019-01-21T10:34:08.954Z,-0.40
2019-01-21T10:37:13.877Z,-0.30
2019-01-21T10:40:14.776Z,-0.20
2019-01-21T10:43:19.080Z,-0.10
2019-01-21T10:46:07.904Z,0.00
2019-01-21T10:49:15.685Z,0.10
2019-01-21T10:52:08.719Z,0.20
2019-01-21T10:55:14.977Z,0.30
2019-01-21T10:58:10.654Z,0.40
2019-01-21T11:01:25.417Z,0.40
2019-01-21T11:04:19.571Z,0.60
2019-01-21T11:07:19.375Z,0.70
2019-01-21T11:10:11.548Z,0.80
2019-01-21T11:13:15.273Z,0.80
2019-01-21T11:16:07.878Z,0.90
2019-01-21T11:19:30.163Z,1.00
2019-01-21T11:22:04.547Z,1.10
2019-01-21T11:25:06.949Z,1.20
2019-01-21T11:28:15.856Z,1.30
2019-01-21T11:31:34.260Z,1.40
2019-01-21T11:34:53.431Z,1.50
2019-01-21T11:37:57.588Z,1.50
2019-01-21T11:40:53.824Z,1.60
2019-01-21T11:43:49.967Z,1.70
2019-01-21T11:46:56.326Z,1.80
2019-01-21T11:50:10.677Z,1.90
2019-01-21T11:52:49.726Z,2.00
2019-01-21T11:55:42.984Z,2.10
2019-01-21T11:58:34.097Z,2.10
2019-01-21T12:01:44.054Z,2.20
2019-01-21T12:04:24.049Z,2.30
2019-01-21T12:07:26.075Z,2.40
2019-01-21T12:10:25.634Z,2.50
2019-01-21T12:13:14.637Z,2.60
2019-01-21T12:16:26.175Z,2.60
2019-01-21T12:19:24.199Z,2.70
2019-01-21T12:22:07.621Z,2.80
2019-01-21T12:24:44.426Z,2.80
2019-01-21T12:28:00.567Z,2.90
2019-01-21T12:30:53.790Z,2.90
2019-01-21T12:33:46.363Z,2.90
2019-01-21T12:36:38.154Z,2.90
2019-01-21T12:39:42.472Z,3.00
2019-01-21T12:42:38.009Z,3.10
2019-01-21T12:46:00.645Z,3.10
2019-01-21T12:49:17.682Z,3.10
2019-01-21T12:52:00.616Z,3.10
2019-01-21T12:54:40.730Z,3.10
2019-01-21T12:57:24.678Z,3.10
2019-01-21T13:00:48.232Z,3.10
2019-01-21T13:04:04.454Z,3.20
2019-01-21T13:07:01.326Z,3.20
2019-01-21T13:10:10.879Z,3.20
2019-01-21T13:13:06.968Z,3.20
2019-01-21T13:16:10.775Z,3.20
2019-01-21T13:19:22.557Z,3.20
2019-01-21T13:21:58.073Z,3.20
2019-01-21T13:24:40.295Z,3.20
2019-01-21T13:27:20.939Z,3.30
2019-01-21T13:30:06.657Z,3.40
2019-01-21T13:33:07.543Z,3.40
2019-01-21T13:35:46.888Z,3.40
2019-01-21T13:38:51.590Z,3.50
2019-01-21T13:41:57.551Z,3.50
2019-01-21T13:44:49.358Z,3.40
2019-01-21T13:47:56.804Z,3.40
2019-01-21T13:50:44.322Z,3.40
2019-01-21T13:53:49.686Z,3.40
2019-01-21T13:56:51.995Z,3.40
2019-01-21T14:00:03.528Z,3.40
2019-01-21T14:02:41.150Z,3.40
2019-01-21T14:05:44.464Z,3.50
2019-01-21T14:08:46.316Z,3.50
2019-01-21T14:11:40.047Z,3.50
2019-01-21T14:14:25.789Z,3.50
2019-01-21T14:17:48.772Z,3.50
2019-01-21T14:20:30.067Z,3.50
2019-01-21T14:23:25.469Z,3.50
2019-01-21T14:26:18.559Z,3.50
2019-01-21T14:29:15.222Z,3.50
2019-01-21T14:32:07.701Z,3.50
2019-01-21T14:35:04.873Z,3.50
2019-01-21T14:38:12.375Z,3.50
2019-01-21T14:41:13.769Z,3.50
2019-01-21T14:44:06.927Z,3.40
2019-01-21T14:47:15.553Z,3.40
2019-01-21T14:50:14.658Z,3.40
2019-01-21T14:53:18.183Z,3.40
2019-01-21T14:56:13.359Z,3.40
2019-01-21T14:58:58.449Z,3.40
2019-01-21T15:02:05.668Z,3.40
2019-01-21T15:04:57.473Z,3.40
2019-01-21T15:07:56.994Z,3.50
2019-01-21T15:10:46.410Z,3.50
2019-01-21T15:13:46.575Z,3.60
2019-01-21T15:16:34.122Z,3.60
2019-01-21T15:19:30.459Z,3.60
2019-01-21T15:22:40.545Z,3.60
2019-01-21T15:25:52.674Z,3.60
2019-01-21T15:29:05.210Z,3.60
2019-01-21T15:32:09.585Z,3.50
2019-01-21T15:35:26.290Z,3.50
2019-01-21T15:38:32.413Z,3.40
2019-01-21T15:41:42.430Z,3.40
2019-01-21T15:44:26.129Z,3.40
2019-01-21T15:47:33.697Z,3.30
2019-01-21T15:50:29.589Z,3.30
2019-01-21T15:53:25.133Z,3.30
2019-01-21T15:56:24.899Z,3.30
2019-01-21T15:59:06.320Z,3.30
2019-01-21T16:02:10.708Z,3.30
2019-01-21T16:05:03.724Z,3.30
2019-01-21T16:08:03.663Z,3.30
2019-01-21T16:10:53.453Z,3.30
2019-01-21T16:13:55.206Z,3.20
2019-01-21T16:16:49.083Z,3.20
2019-01-21T16:19:53.812Z,3.20
2019-01-21T16:22:55.308Z,3.20
2019-01-21T16:25:57.691Z,3.20
2019-01-21T16:29:02.296Z,3.20
2019-01-21T16:32:09.820Z,3.10
2019-01-21T16:35:18.420Z,3.10
2019-01-21T16:37:53.129Z,3.10
2019-01-21T16:41:15.120Z,3.00
2019-01-21T16:43:44.399Z,3.00
2019-01-21T16:46:13.341Z,3.00
2019-01-21T16:48:42.325Z,3.00
2019-01-21T16:51:11.371Z,3.00
2019-01-21T16:53:40.193Z,3.00
2019-01-21T16:56:09.093Z,3.00
2019-01-21T16:58:37.950Z,3.00
2019-01-21T17:01:06.946Z,3.00
2019-01-21T17:03:36.034Z,3.00
2019-01-21T17:06:05.456Z,2.90
2019-01-21T17:08:34.355Z,2.90
2019-01-21T17:11:03.365Z,2.90
2019-01-21T17:13:32.146Z,2.80
2019-01-21T17:16:01.061Z,2.80
2019-01-21T17:18:29.883Z,2.80
2019-01-21T17:20:58.924Z,2.70
2019-01-21T17:23:27.733Z,2.70
2019-01-21T17:25:56.597Z,2.60
2019-01-21T17:28:25.602Z,2.60
2019-01-21T17:30:54.579Z,2.60
2019-01-21T17:33:23.474Z,2.60
2019-01-21T17:35:52.260Z,2.50
2019-01-21T17:38:22.353Z,2.50
2019-01-21T17:40:51.439Z,2.50
2019-01-21T17:43:20.229Z,2.50
2019-01-21T17:45:49.115Z,2.50
2019-01-21T17:48:17.993Z,2.40
2019-01-21T17:50:46.944Z,2.40
2019-01-21T17:53:15.744Z,2.40
2019-01-21T17:55:44.657Z,2.40
2019-01-21T17:58:15.567Z,2.30
2019-01-21T18:00:44.606Z,2.30
2019-01-21T18:03:13.454Z,2.30
2019-01-21T18:05:42.305Z,2.20
2019-01-21T18:08:11.272Z,2.20
2019-01-21T18:10:40.120Z,2.20
2019-01-21T18:13:09.041Z,2.10
2019-01-21T18:15:37.876Z,2.10
2019-01-21T18:18:07.198Z,2.10
2019-01-21T18:20:36.084Z,2.10
2019-01-21T18:23:05.251Z,2.00
2019-01-21T18:25:34.849Z,2.00
2019-01-21T18:28:03.836Z,2.00
2019-01-21T18:33:08.558Z,1.90
2019-01-21T18:35:37.357Z,1.90
2019-01-21T18:38:06.764Z,1.90
2019-01-21T18:43:15.347Z,1.90
2019-01-21T18:45:45.028Z,1.80
2019-01-21T18:48:13.898Z,1.80
2019-01-21T18:50:43.152Z,1.80
2019-01-21T18:53:11.943Z,1.80
2019-01-21T18:55:40.849Z,1.70
2019-01-21T18:58:10.278Z,1.70
2019-01-21T19:00:39.178Z,1.70
2019-01-21T19:03:08.175Z,1.70
2019-01-21T19:05:37.242Z,1.70
2019-01-21T19:08:06.442Z,1.60
2019-01-21T19:10:35.397Z,1.60
2019-01-21T19:13:04.358Z,1.60
2019-01-21T19:15:33.500Z,1.60
2019-01-21T19:18:02.737Z,1.60
2019-01-21T19:20:31.748Z,1.60
2019-01-21T19:23:00.688Z,1.60
2019-01-21T19:25:29.662Z,1.60
2019-01-21T19:27:58.519Z,1.50
2019-01-21T19:30:28.207Z,1.50
2019-01-21T19:32:57.103Z,1.50
2019-01-21T19:35:28.807Z,1.40
2019-01-21T19:37:57.706Z,1.40
2019-01-21T19:40:27.734Z,1.40
2019-01-21T19:45:39.575Z,1.40
2019-01-21T19:48:08.452Z,1.40
2019-01-21T19:50:37.543Z,1.40
2019-01-21T19:53:06.320Z,1.40
2019-01-21T19:55:38.114Z,1.40
2019-01-21T19:58:08.251Z,1.40
2019-01-21T20:00:37.388Z,1.40
2019-01-21T20:03:06.611Z,1.40
2019-01-21T20:05:35.484Z,1.40
2019-01-21T20:08:04.733Z,1.40
2019-01-21T20:10:33.748Z,1.40
2019-01-21T20:13:02.769Z,1.40
2019-01-21T20:15:31.787Z,1.40
2019-01-21T20:18:00.651Z,1.40
2019-01-21T20:20:32.258Z,1.40
2019-01-21T20:23:01.114Z,1.40
2019-01-21T20:25:29.939Z,1.40
2019-01-21T20:27:58.750Z,1.30
2019-01-21T20:30:27.793Z,1.30
2019-01-21T20:32:56.767Z,1.30
2019-01-21T20:35:25.643Z,1.30
2019-01-21T20:37:54.537Z,1.30
2019-01-21T20:40:25.289Z,1.30
2019-01-21T20:42:54.169Z,1.30
2019-01-21T20:45:23.352Z,1.30
2019-01-21T20:47:52.240Z,1.30
2019-01-21T20:50:24.173Z,1.30
2019-01-21T20:52:53.093Z,1.30
2019-01-21T20:55:22.379Z,1.30
2019-01-21T20:57:51.327Z,1.30
2019-01-21T21:00:22.289Z,1.30
2019-01-21T21:02:51.280Z,1.30
2019-01-21T21:05:20.689Z,1.30
2019-01-21T21:07:49.534Z,1.40
2019-01-21T21:10:18.790Z,1.40
2019-01-21T21:12:47.583Z,1.40
2019-01-21T21:15:18.909Z,1.40
2019-01-21T21:17:48.102Z,1.40
2019-01-21T21:20:17.448Z,1.40
2019-01-21T21:22:46.264Z,1.40
2019-01-21T21:25:16.444Z,1.40
2019-01-21T21:27:45.353Z,1.40
2019-01-21T21:30:17.408Z,1.40
2019-01-21T21:32:46.212Z,1.40
2019-01-21T21:35:15.175Z,1.40
2019-01-21T21:37:44.116Z,1.40
2019-01-21T21:40:15.399Z,1.40
2019-01-21T21:42:44.531Z,1.40
2019-01-21T21:45:14.604Z,1.40
2019-01-21T21:47:43.509Z,1.30
2019-01-21T21:50:15.157Z,1.30
2019-01-21T21:52:43.984Z,1.30
2019-01-21T21:55:13.106Z,1.30
2019-01-21T21:57:42.066Z,1.30
2019-01-21T22:00:14.539Z,1.30
2019-01-21T22:02:43.365Z,1.30
2019-01-21T22:05:12.475Z,1.30
2019-01-21T22:07:41.302Z,1.30
2019-01-21T22:10:14.408Z,1.20
2019-01-21T22:12:43.294Z,1.20
2019-01-21T22:15:16.801Z,1.20
2019-01-21T22:17:45.693Z,1.20
2019-01-21T22:20:16.931Z,1.20
2019-01-21T22:22:45.732Z,1.10
2019-01-21T22:25:14.803Z,1.10
2019-01-21T22:27:43.685Z,1.10
2019-01-21T22:30:18.081Z,1.00
2019-01-21T22:32:46.890Z,1.00
2019-01-21T22:35:15.863Z,1.00
2019-01-21T22:37:45.312Z,1.00
2019-01-21T22:40:16.138Z,0.90
2019-01-21T22:42:45.089Z,0.90
2019-01-21T22:45:15.304Z,0.90
2019-01-21T22:47:44.693Z,0.90
2019-01-21T22:50:14.596Z,0.90
2019-01-21T22:52:43.550Z,0.90
2019-01-21T22:55:14.068Z,0.90
2019-01-21T22:57:43.657Z,0.90
2019-01-21T23:00:40.507Z,0.90
2019-01-21T23:03:10.215Z,0.90
2019-01-21T23:05:39.233Z,0.90
2019-01-21T23:08:08.028Z,0.90
2019-01-21T23:10:37.629Z,0.80
2019-01-21T23:13:06.638Z,0.80
2019-01-21T23:15:35.566Z,0.80
2019-01-21T23:18:05.334Z,0.80
2019-01-21T23:20:34.575Z,0.70
2019-01-21T23:23:03.557Z,0.70
2019-01-21T23:25:33.119Z,0.70
2019-01-21T23:28:02.025Z,0.70
2019-01-21T23:30:31.081Z,0.70
2019-01-21T23:32:59.990Z,0.70
2019-01-21T23:35:28.890Z,0.60
2019-01-21T23:37:57.798Z,0.60
2019-01-21T23:40:26.822Z,0.60
2019-01-21T23:42:55.639Z,0.60
2019-01-21T23:45:24.632Z,0.60
2019-01-21T23:47:53.580Z,0.50
2019-01-21T23:50:23.191Z,0.50
2019-01-21T23:52:55.928Z,0.50
2019-01-21T23:55:22.983Z,0.50
2019-01-21T23:57:51.941Z,0.50
